Portada
METAR-TAF:

METAR-TAF

Aeroports :

Ilam, Iran

latitud: 33-35-09N, longitud: 046-24-20E, altitud: 1334 m

Observació

L'informe es va fer fa 1 hora i 8 minuts, a les 16:00 UTC
Vent 8 kt del Oest/Nord-Oest
Temperatura 25°C
Humitat 18%
Pressió 1019 hPa
Visibilitat 10 km o més
sense núvols per sota de 1500 mi sense presència de cumulonimbus.

METAR: OICI 191600Z 29008KT CAVOK 25/M01 Q1018 A3008

Hora: 21:38 (17:08 UTC)

Pronòstic

L'informe es va fer fa 6 hores i 8 minuts, a les 11:00 UTC
Pronòstic vàlid del 19 a les 12 UTC al 20 a les 18 UTC
Vent 6 kt del Oest
Visibilitat 10 km o més
sense núvols per sota de 1500 mi sense presència de cumulonimbus.
Temporalment
l' 19 a les 12 UTC al 19 a les 15 UTC
Vent 22 kt del Oest
Visibilitat: 5000 m
sorra
Temporalment
l' 20 a les 12 UTC al 20 a les 15 UTC
Vent 20 kt del Oest
Visibilitat: 5000 m
sorra

TAF: OICI 191100Z 1912/2018 28006KT CAVOK TEMPO 1912/1915 28022KT 5000 SA NSC TEMPO 2012/2015 27020KT 5000 SA NSC

Observacions i pronòstics meteorològics de més de 4000 aeroports (METAR i TAF).

Les estacions disponibles són els punts grocs i vermells al mapa.

Posi el ratolí al punt desitjat per veure el nom de l'estació.

Feu clic per veure les observacions i els pronòstics meteorològics.

Per canviar el mapa: feu clic els botons verds amb una creu de color negre per apropar; al botó verd amb un guió per allunyar la imatge; o en les fletxes verdes per a mapes adjacents.


METAR-TAF: